sensor_id;sensor_type;location;lat;lon;timestamp;P1;durP1;ratioP1;P2;durP2;ratioP2
55134;SDS011;41031;44.750;11.308;2023-07-28T00:00:50;2.30;;;1.60;;
55134;SDS011;41031;44.750;11.308;2023-07-28T00:03:17;4.33;;;1.67;;
55134;SDS011;41031;44.750;11.308;2023-07-28T00:05:44;2.03;;;1.70;;
55134;SDS011;41031;44.750;11.308;2023-07-28T00:08:11;2.60;;;1.90;;
55134;SDS011;41031;44.750;11.308;2023-07-28T00:10:41;3.40;;;1.30;;
55134;SDS011;41031;44.750;11.308;2023-07-28T00:13:08;3.00;;;1.30;;
55134;SDS011;41031;44.750;11.308;2023-07-28T00:15:35;5.83;;;1.23;;
55134;SDS011;41031;44.750;11.308;2023-07-28T00:18:02;2.90;;;1.60;;
55134;SDS011;41031;44.750;11.308;2023-07-28T00:20:29;3.30;;;1.53;;
55134;SDS011;41031;44.750;11.308;2023-07-28T00:22:56;2.70;;;1.90;;
55134;SDS011;41031;44.750;11.308;2023-07-28T00:25:25;3.23;;;1.50;;
55134;SDS011;41031;44.750;11.308;2023-07-28T00:27:52;2.13;;;1.67;;
55134;SDS011;41031;44.750;11.308;2023-07-28T00:30:19;2.23;;;1.83;;
55134;SDS011;41031;44.750;11.308;2023-07-28T00:32:46;2.63;;;1.40;;
55134;SDS011;41031;44.750;11.308;2023-07-28T00:35:13;2.17;;;1.70;;
55134;SDS011;41031;44.750;11.308;2023-07-28T00:37:40;3.20;;;1.80;;
55134;SDS011;41031;44.750;11.308;2023-07-28T00:40:07;2.57;;;1.80;;
55134;SDS011;41031;44.750;11.308;2023-07-28T00:42:34;2.53;;;1.73;;
55134;SDS011;41031;44.750;11.308;2023-07-28T00:45:02;1.90;;;1.40;;
55134;SDS011;41031;44.750;11.308;2023-07-28T00:47:30;4.10;;;1.90;;
55134;SDS011;41031;44.750;11.308;2023-07-28T00:49:57;3.10;;;1.90;;
55134;SDS011;41031;44.750;11.308;2023-07-28T00:52:24;4.30;;;1.50;;
55134;SDS011;41031;44.750;11.308;2023-07-28T00:54:51;2.17;;;1.60;;
55134;SDS011;41031;44.750;11.308;2023-07-28T00:57:19;1.50;;;1.40;;
55134;SDS011;41031;44.750;11.308;2023-07-28T00:59:46;5.93;;;1.63;;
55134;SDS011;41031;44.750;11.308;2023-07-28T01:02:17;2.63;;;1.87;;
55134;SDS011;41031;44.750;11.308;2023-07-28T01:04:45;5.20;;;2.10;;
55134;SDS011;41031;44.750;11.308;2023-07-28T01:09:51;1.90;;;1.63;;
55134;SDS011;41031;44.750;11.308;2023-07-28T01:12:23;3.50;;;1.37;;
55134;SDS011;41031;44.750;11.308;2023-07-28T01:14:50;6.87;;;1.90;;
55134;SDS011;41031;44.750;11.308;2023-07-28T01:17:17;3.00;;;2.00;;
55134;SDS011;41031;44.750;11.308;2023-07-28T01:19:46;3.20;;;2.13;;
55134;SDS011;41031;44.750;11.308;2023-07-28T01:22:25;4.40;;;2.07;;
55134;SDS011;41031;44.750;11.308;2023-07-28T01:28:02;2.73;;;1.80;;
55134;SDS011;41031;44.750;11.308;2023-07-28T01:30:31;3.87;;;1.67;;
55134;SDS011;41031;44.750;11.308;2023-07-28T01:32:58;2.67;;;1.57;;
55134;SDS011;41031;44.750;11.308;2023-07-28T01:35:25;6.53;;;1.70;;
55134;SDS011;41031;44.750;11.308;2023-07-28T01:37:54;3.97;;;2.43;;
55134;SDS011;41031;44.750;11.308;2023-07-28T01:40:21;4.20;;;1.60;;
55134;SDS011;41031;44.750;11.308;2023-07-28T01:42:48;4.47;;;2.13;;
55134;SDS011;41031;44.750;11.308;2023-07-28T01:45:15;2.20;;;1.90;;
55134;SDS011;41031;44.750;11.308;2023-07-28T01:47:42;6.00;;;2.07;;
55134;SDS011;41031;44.750;11.308;2023-07-28T01:50:09;3.13;;;1.97;;
55134;SDS011;41031;44.750;11.308;2023-07-28T01:52:36;4.20;;;2.27;;
55134;SDS011;41031;44.750;11.308;2023-07-28T01:55:03;9.10;;;2.50;;
55134;SDS011;41031;44.750;11.308;2023-07-28T01:57:33;3.30;;;2.07;;
55134;SDS011;41031;44.750;11.308;2023-07-28T02:00:00;2.83;;;2.03;;
55134;SDS011;41031;44.750;11.308;2023-07-28T02:02:38;4.53;;;2.10;;
55134;SDS011;41031;44.750;11.308;2023-07-28T02:05:06;2.27;;;2.07;;
55134;SDS011;41031;44.750;11.308;2023-07-28T02:07:33;3.57;;;2.07;;
55134;SDS011;41031;44.750;11.308;2023-07-28T02:10:00;6.40;;;2.13;;
55134;SDS011;41031;44.750;11.308;2023-07-28T02:12:27;3.97;;;2.30;;
55134;SDS011;41031;44.750;11.308;2023-07-28T02:14:54;5.67;;;2.03;;
55134;SDS011;41031;44.750;11.308;2023-07-28T02:17:21;4.70;;;2.03;;
55134;SDS011;41031;44.750;11.308;2023-07-28T02:19:48;7.17;;;2.10;;
55134;SDS011;41031;44.750;11.308;2023-07-28T02:22:15;4.53;;;2.10;;
55134;SDS011;41031;44.750;11.308;2023-07-28T02:24:42;2.50;;;2.07;;
55134;SDS011;41031;44.750;11.308;2023-07-28T02:27:09;3.17;;;1.90;;
55134;SDS011;41031;44.750;11.308;2023-07-28T02:29:36;3.30;;;2.40;;
55134;SDS011;41031;44.750;11.308;2023-07-28T02:32:03;2.37;;;2.00;;
55134;SDS011;41031;44.750;11.308;2023-07-28T02:34:30;2.43;;;2.23;;
55134;SDS011;41031;44.750;11.308;2023-07-28T02:36:57;3.57;;;1.80;;
55134;SDS011;41031;44.750;11.308;2023-07-28T02:39:24;6.20;;;2.20;;
55134;SDS011;41031;44.750;11.308;2023-07-28T02:41:52;4.97;;;2.50;;
55134;SDS011;41031;44.750;11.308;2023-07-28T02:44:18;2.93;;;2.37;;
55134;SDS011;41031;44.750;11.308;2023-07-28T02:46:46;3.63;;;2.10;;
55134;SDS011;41031;44.750;11.308;2023-07-28T02:49:13;3.70;;;1.60;;
55134;SDS011;41031;44.750;11.308;2023-07-28T02:51:40;2.23;;;2.00;;
55134;SDS011;41031;44.750;11.308;2023-07-28T02:54:08;2.70;;;2.10;;
55134;SDS011;41031;44.750;11.308;2023-07-28T02:56:35;4.50;;;2.10;;
55134;SDS011;41031;44.750;11.308;2023-07-28T02:59:09;4.37;;;2.27;;
55134;SDS011;41031;44.750;11.308;2023-07-28T03:01:36;6.73;;;2.40;;
55134;SDS011;41031;44.750;11.308;2023-07-28T03:04:03;3.27;;;1.90;;
55134;SDS011;41031;44.750;11.308;2023-07-28T03:06:45;3.93;;;2.27;;
55134;SDS011;41031;44.750;11.308;2023-07-28T03:09:13;2.70;;;2.07;;
55134;SDS011;41031;44.750;11.308;2023-07-28T03:11:54;3.27;;;2.27;;
55134;SDS011;41031;44.750;11.308;2023-07-28T03:14:22;5.57;;;2.60;;
55134;SDS011;41031;44.750;11.308;2023-07-28T03:16:49;5.53;;;2.03;;
55134;SDS011;41031;44.750;11.308;2023-07-28T03:19:16;3.87;;;2.27;;
55134;SDS011;41031;44.750;11.308;2023-07-28T03:21:44;6.10;;;2.63;;
55134;SDS011;41031;44.750;11.308;2023-07-28T03:24:11;3.80;;;2.10;;
55134;SDS011;41031;44.750;11.308;2023-07-28T03:26:38;5.70;;;2.50;;
55134;SDS011;41031;44.750;11.308;2023-07-28T03:29:05;5.80;;;2.80;;
55134;SDS011;41031;44.750;11.308;2023-07-28T03:31:32;3.10;;;2.30;;
55134;SDS011;41031;44.750;11.308;2023-07-28T03:34:03;5.53;;;2.80;;
55134;SDS011;41031;44.750;11.308;2023-07-28T03:36:31;4.53;;;2.83;;
55134;SDS011;41031;44.750;11.308;2023-07-28T03:39:00;5.30;;;2.50;;
55134;SDS011;41031;44.750;11.308;2023-07-28T03:41:28;3.50;;;2.63;;
55134;SDS011;41031;44.750;11.308;2023-07-28T03:43:55;6.87;;;2.27;;
55134;SDS011;41031;44.750;11.308;2023-07-28T03:46:22;4.03;;;2.10;;
55134;SDS011;41031;44.750;11.308;2023-07-28T03:48:50;5.00;;;2.77;;
55134;SDS011;41031;44.750;11.308;2023-07-28T03:51:17;3.40;;;2.40;;
55134;SDS011;41031;44.750;11.308;2023-07-28T03:53:44;4.30;;;2.43;;
55134;SDS011;41031;44.750;11.308;2023-07-28T03:56:11;3.20;;;2.90;;
55134;SDS011;41031;44.750;11.308;2023-07-28T03:58:38;4.83;;;3.27;;
55134;SDS011;41031;44.750;11.308;2023-07-28T04:01:05;6.77;;;2.80;;
55134;SDS011;41031;44.750;11.308;2023-07-28T04:03:34;3.53;;;2.90;;
55134;SDS011;41031;44.750;11.308;2023-07-28T04:06:05;4.43;;;2.97;;
55134;SDS011;41031;44.750;11.308;2023-07-28T04:08:36;3.20;;;2.77;;
55134;SDS011;41031;44.750;11.308;2023-07-28T04:11:03;3.37;;;2.60;;
55134;SDS011;41031;44.750;11.308;2023-07-28T04:13:30;6.33;;;3.67;;
55134;SDS011;41031;44.750;11.308;2023-07-28T04:15:57;5.33;;;2.80;;
55134;SDS011;41031;44.750;11.308;2023-07-28T04:18:24;3.50;;;3.17;;
55134;SDS011;41031;44.750;11.308;2023-07-28T04:20:51;6.53;;;3.47;;
55134;SDS011;41031;44.750;11.308;2023-07-28T04:23:19;4.40;;;3.20;;
55134;SDS011;41031;44.750;11.308;2023-07-28T04:25:46;4.87;;;3.30;;
55134;SDS011;41031;44.750;11.308;2023-07-28T04:28:13;5.00;;;2.93;;
55134;SDS011;41031;44.750;11.308;2023-07-28T04:30:40;5.10;;;2.60;;
55134;SDS011;41031;44.750;11.308;2023-07-28T04:33:16;8.80;;;3.50;;
55134;SDS011;41031;44.750;11.308;2023-07-28T04:35:43;4.53;;;3.30;;
55134;SDS011;41031;44.750;11.308;2023-07-28T04:38:16;6.70;;;3.30;;
55134;SDS011;41031;44.750;11.308;2023-07-28T04:40:48;6.40;;;3.67;;
55134;SDS011;41031;44.750;11.308;2023-07-28T04:43:20;11.83;;;4.13;;
55134;SDS011;41031;44.750;11.308;2023-07-28T04:45:51;6.57;;;3.27;;
55134;SDS011;41031;44.750;11.308;2023-07-28T04:48:21;6.50;;;3.57;;
55134;SDS011;41031;44.750;11.308;2023-07-28T04:50:48;4.17;;;2.90;;
55134;SDS011;41031;44.750;11.308;2023-07-28T04:53:34;6.30;;;3.57;;
55134;SDS011;41031;44.750;11.308;2023-07-28T04:56:10;5.90;;;3.23;;
55134;SDS011;41031;44.750;11.308;2023-07-28T04:58:37;7.10;;;3.23;;
55134;SDS011;41031;44.750;11.308;2023-07-28T05:01:04;7.07;;;4.03;;
55134;SDS011;41031;44.750;11.308;2023-07-28T05:03:35;5.17;;;3.10;;
55134;SDS011;41031;44.750;11.308;2023-07-28T05:06:17;4.97;;;3.90;;
55134;SDS011;41031;44.750;11.308;2023-07-28T05:08:45;3.97;;;3.57;;
55134;SDS011;41031;44.750;11.308;2023-07-28T05:11:16;4.63;;;3.73;;
55134;SDS011;41031;44.750;11.308;2023-07-28T05:13:43;6.07;;;3.63;;
55134;SDS011;41031;44.750;11.308;2023-07-28T05:16:10;6.80;;;3.03;;
55134;SDS011;41031;44.750;11.308;2023-07-28T05:19:12;6.43;;;3.30;;
55134;SDS011;41031;44.750;11.308;2023-07-28T05:21:48;9.10;;;4.23;;
55134;SDS011;41031;44.750;11.308;2023-07-28T05:24:18;6.57;;;3.93;;
55134;SDS011;41031;44.750;11.308;2023-07-28T05:26:46;4.93;;;3.90;;
55134;SDS011;41031;44.750;11.308;2023-07-28T05:29:13;5.53;;;4.00;;
55134;SDS011;41031;44.750;11.308;2023-07-28T05:31:42;4.87;;;3.27;;
55134;SDS011;41031;44.750;11.308;2023-07-28T05:34:23;8.97;;;3.43;;
55134;SDS011;41031;44.750;11.308;2023-07-28T05:36:50;8.23;;;3.63;;
55134;SDS011;41031;44.750;11.308;2023-07-28T05:39:17;4.57;;;3.70;;
55134;SDS011;41031;44.750;11.308;2023-07-28T05:41:45;9.53;;;4.63;;
55134;SDS011;41031;44.750;11.308;2023-07-28T05:44:13;5.03;;;3.73;;
55134;SDS011;41031;44.750;11.308;2023-07-28T05:46:40;6.50;;;3.67;;
55134;SDS011;41031;44.750;11.308;2023-07-28T05:49:07;9.47;;;4.03;;
55134;SDS011;41031;44.750;11.308;2023-07-28T05:51:34;6.90;;;3.90;;
55134;SDS011;41031;44.750;11.308;2023-07-28T05:54:02;7.03;;;4.03;;
55134;SDS011;41031;44.750;11.308;2023-07-28T05:56:29;4.47;;;4.00;;
55134;SDS011;41031;44.750;11.308;2023-07-28T05:58:56;6.17;;;4.63;;
55134;SDS011;41031;44.750;11.308;2023-07-28T06:01:23;6.50;;;4.13;;
55134;SDS011;41031;44.750;11.308;2023-07-28T06:04:13;6.87;;;3.90;;
55134;SDS011;41031;44.750;11.308;2023-07-28T06:06:45;4.87;;;3.70;;
55134;SDS011;41031;44.750;11.308;2023-07-28T06:09:13;3.63;;;3.13;;
55134;SDS011;41031;44.750;11.308;2023-07-28T06:11:41;5.27;;;3.40;;
55134;SDS011;41031;44.750;11.308;2023-07-28T06:14:09;3.80;;;3.37;;
55134;SDS011;41031;44.750;11.308;2023-07-28T06:16:36;4.47;;;2.90;;
55134;SDS011;41031;44.750;11.308;2023-07-28T06:19:03;3.47;;;2.63;;
55134;SDS011;41031;44.750;11.308;2023-07-28T06:21:32;8.13;;;3.30;;
55134;SDS011;41031;44.750;11.308;2023-07-28T06:23:59;4.93;;;2.67;;
55134;SDS011;41031;44.750;11.308;2023-07-28T06:26:27;4.47;;;3.10;;
55134;SDS011;41031;44.750;11.308;2023-07-28T06:28:54;3.40;;;2.67;;
55134;SDS011;41031;44.750;11.308;2023-07-28T06:31:21;4.03;;;3.00;;
55134;SDS011;41031;44.750;11.308;2023-07-28T06:33:48;4.73;;;2.90;;
55134;SDS011;41031;44.750;11.308;2023-07-28T06:36:15;3.50;;;2.87;;
55134;SDS011;41031;44.750;11.308;2023-07-28T06:38:44;3.40;;;2.50;;
55134;SDS011;41031;44.750;11.308;2023-07-28T06:41:14;5.33;;;2.70;;
55134;SDS011;41031;44.750;11.308;2023-07-28T06:43:44;8.93;;;2.40;;
55134;SDS011;41031;44.750;11.308;2023-07-28T06:46:11;2.33;;;2.13;;
55134;SDS011;41031;44.750;11.308;2023-07-28T06:48:38;4.03;;;2.70;;
55134;SDS011;41031;44.750;11.308;2023-07-28T06:51:05;4.00;;;2.60;;
55134;SDS011;41031;44.750;11.308;2023-07-28T06:53:32;11.83;;;2.53;;
55134;SDS011;41031;44.750;11.308;2023-07-28T06:56:00;4.60;;;2.50;;
55134;SDS011;41031;44.750;11.308;2023-07-28T06:58:27;2.23;;;1.93;;
55134;SDS011;41031;44.750;11.308;2023-07-28T07:00:54;4.30;;;2.30;;
55134;SDS011;41031;44.750;11.308;2023-07-28T07:03:23;3.67;;;2.57;;
55134;SDS011;41031;44.750;11.308;2023-07-28T07:05:50;2.53;;;2.20;;
55134;SDS011;41031;44.750;11.308;2023-07-28T07:08:18;3.50;;;2.27;;
55134;SDS011;41031;44.750;11.308;2023-07-28T07:10:49;3.90;;;2.50;;
55134;SDS011;41031;44.750;11.308;2023-07-28T07:13:17;2.70;;;2.13;;
55134;SDS011;41031;44.750;11.308;2023-07-28T07:15:44;2.80;;;2.20;;
55134;SDS011;41031;44.750;11.308;2023-07-28T07:18:12;3.20;;;2.70;;
55134;SDS011;41031;44.750;11.308;2023-07-28T07:20:39;4.77;;;2.17;;
55134;SDS011;41031;44.750;11.308;2023-07-28T07:23:06;4.50;;;2.50;;
55134;SDS011;41031;44.750;11.308;2023-07-28T07:25:34;3.17;;;2.87;;
55134;SDS011;41031;44.750;11.308;2023-07-28T07:28:02;4.50;;;2.33;;
55134;SDS011;41031;44.750;11.308;2023-07-28T07:30:32;4.60;;;2.40;;
55134;SDS011;41031;44.750;11.308;2023-07-28T07:33:00;2.37;;;2.10;;
55134;SDS011;41031;44.750;11.308;2023-07-28T07:35:27;4.80;;;2.63;;
55134;SDS011;41031;44.750;11.308;2023-07-28T07:37:54;2.93;;;2.70;;
55134;SDS011;41031;44.750;11.308;2023-07-28T07:40:21;4.30;;;2.67;;
55134;SDS011;41031;44.750;11.308;2023-07-28T07:42:53;4.43;;;2.90;;
55134;SDS011;41031;44.750;11.308;2023-07-28T07:45:20;7.77;;;2.80;;
55134;SDS011;41031;44.750;11.308;2023-07-28T07:47:47;6.10;;;2.87;;
55134;SDS011;41031;44.750;11.308;2023-07-28T07:50:14;8.43;;;3.40;;
55134;SDS011;41031;44.750;11.308;2023-07-28T07:52:41;3.43;;;2.57;;
55134;SDS011;41031;44.750;11.308;2023-07-28T07:55:09;7.40;;;2.90;;
55134;SDS011;41031;44.750;11.308;2023-07-28T07:57:38;6.10;;;2.60;;
55134;SDS011;41031;44.750;11.308;2023-07-28T08:00:06;5.13;;;3.17;;
55134;SDS011;41031;44.750;11.308;2023-07-28T08:02:39;5.47;;;2.10;;
55134;SDS011;41031;44.750;11.308;2023-07-28T08:05:10;3.43;;;2.77;;
55134;SDS011;41031;44.750;11.308;2023-07-28T08:07:37;3.47;;;2.10;;
55134;SDS011;41031;44.750;11.308;2023-07-28T08:10:04;3.00;;;2.20;;
55134;SDS011;41031;44.750;11.308;2023-07-28T08:12:32;6.50;;;2.80;;
55134;SDS011;41031;44.750;11.308;2023-07-28T08:14:59;11.63;;;2.33;;
55134;SDS011;41031;44.750;11.308;2023-07-28T08:17:27;6.13;;;2.37;;
55134;SDS011;41031;44.750;11.308;2023-07-28T08:19:54;3.40;;;2.47;;
55134;SDS011;41031;44.750;11.308;2023-07-28T08:22:21;5.67;;;2.70;;
55134;SDS011;41031;44.750;11.308;2023-07-28T08:24:48;4.47;;;2.30;;
55134;SDS011;41031;44.750;11.308;2023-07-28T08:27:15;5.60;;;2.50;;
55134;SDS011;41031;44.750;11.308;2023-07-28T08:29:42;3.93;;;2.30;;
55134;SDS011;41031;44.750;11.308;2023-07-28T08:32:09;4.20;;;2.40;;
55134;SDS011;41031;44.750;11.308;2023-07-28T08:34:35;4.13;;;2.40;;
55134;SDS011;41031;44.750;11.308;2023-07-28T08:37:02;5.07;;;1.90;;
55134;SDS011;41031;44.750;11.308;2023-07-28T08:39:30;6.83;;;2.43;;
55134;SDS011;41031;44.750;11.308;2023-07-28T08:41:58;5.30;;;1.83;;
55134;SDS011;41031;44.750;11.308;2023-07-28T08:44:32;4.07;;;1.87;;
55134;SDS011;41031;44.750;11.308;2023-07-28T08:47:01;2.70;;;1.50;;
55134;SDS011;41031;44.750;11.308;2023-07-28T08:49:33;5.10;;;1.70;;
55134;SDS011;41031;44.750;11.308;2023-07-28T08:52:03;2.37;;;1.40;;
55134;SDS011;41031;44.750;11.308;2023-07-28T08:54:30;1.97;;;1.70;;
55134;SDS011;41031;44.750;11.308;2023-07-28T08:56:57;4.20;;;2.27;;
55134;SDS011;41031;44.750;11.308;2023-07-28T08:59:26;3.40;;;1.67;;
55134;SDS011;41031;44.750;11.308;2023-07-28T09:01:55;2.13;;;1.63;;
55134;SDS011;41031;44.750;11.308;2023-07-28T09:04:23;1.97;;;1.77;;
55134;SDS011;41031;44.750;11.308;2023-07-28T09:06:50;3.23;;;1.20;;
55134;SDS011;41031;44.750;11.308;2023-07-28T09:09:19;4.73;;;1.73;;
55134;SDS011;41031;44.750;11.308;2023-07-28T09:11:52;5.03;;;1.90;;
55134;SDS011;41031;44.750;11.308;2023-07-28T09:14:21;2.23;;;1.70;;
55134;SDS011;41031;44.750;11.308;2023-07-28T09:16:51;2.43;;;1.67;;
55134;SDS011;41031;44.750;11.308;2023-07-28T09:19:20;1.87;;;1.53;;
55134;SDS011;41031;44.750;11.308;2023-07-28T09:21:58;3.33;;;1.80;;
55134;SDS011;41031;44.750;11.308;2023-07-28T09:24:30;2.97;;;1.97;;
55134;SDS011;41031;44.750;11.308;2023-07-28T09:26:58;5.07;;;2.10;;
55134;SDS011;41031;44.750;11.308;2023-07-28T09:29:26;2.80;;;1.53;;
55134;SDS011;41031;44.750;11.308;2023-07-28T09:32:05;6.37;;;2.10;;
55134;SDS011;41031;44.750;11.308;2023-07-28T09:34:32;4.10;;;2.27;;
55134;SDS011;41031;44.750;11.308;2023-07-28T09:37:00;4.40;;;1.77;;
55134;SDS011;41031;44.750;11.308;2023-07-28T09:39:28;6.57;;;2.20;;
55134;SDS011;41031;44.750;11.308;2023-07-28T09:41:55;5.50;;;1.60;;
55134;SDS011;41031;44.750;11.308;2023-07-28T09:44:26;5.10;;;2.30;;
55134;SDS011;41031;44.750;11.308;2023-07-28T09:46:54;3.90;;;1.70;;
55134;SDS011;41031;44.750;11.308;2023-07-28T09:49:56;5.10;;;2.10;;
55134;SDS011;41031;44.750;11.308;2023-07-28T09:52:17;4.20;;;2.07;;
55134;SDS011;41031;44.750;11.308;2023-07-28T09:54:46;4.80;;;1.97;;
55134;SDS011;41031;44.750;11.308;2023-07-28T09:57:20;5.43;;;2.03;;
55134;SDS011;41031;44.750;11.308;2023-07-28T09:59:47;7.23;;;1.97;;
55134;SDS011;41031;44.750;11.308;2023-07-28T10:02:16;1.90;;;1.80;;
55134;SDS011;41031;44.750;11.308;2023-07-28T10:04:43;5.37;;;1.90;;
55134;SDS011;41031;44.750;11.308;2023-07-28T10:07:10;2.83;;;1.70;;
55134;SDS011;41031;44.750;11.308;2023-07-28T10:09:39;3.00;;;1.87;;
55134;SDS011;41031;44.750;11.308;2023-07-28T10:12:06;5.97;;;2.20;;
55134;SDS011;41031;44.750;11.308;2023-07-28T10:14:43;4.23;;;2.17;;
55134;SDS011;41031;44.750;11.308;2023-07-28T10:17:15;4.43;;;1.83;;
55134;SDS011;41031;44.750;11.308;2023-07-28T10:19:43;7.47;;;2.20;;
55134;SDS011;41031;44.750;11.308;2023-07-28T10:22:10;6.27;;;2.13;;
55134;SDS011;41031;44.750;11.308;2023-07-28T10:30:03;3.00;;;2.20;;
55134;SDS011;41031;44.750;11.308;2023-07-28T10:32:44;2.83;;;1.90;;
55134;SDS011;41031;44.750;11.308;2023-07-28T10:37:44;6.40;;;2.10;;
55134;SDS011;41031;44.750;11.308;2023-07-28T10:42:59;5.80;;;1.70;;
55134;SDS011;41031;44.750;11.308;2023-07-28T10:45:27;1.67;;;1.50;;
55134;SDS011;41031;44.750;11.308;2023-07-28T10:47:56;2.87;;;1.83;;
55134;SDS011;41031;44.750;11.308;2023-07-28T10:50:29;5.80;;;1.60;;
55134;SDS011;41031;44.750;11.308;2023-07-28T10:52:57;2.53;;;1.90;;
55134;SDS011;41031;44.750;11.308;2023-07-28T10:55:25;6.17;;;2.50;;
55134;SDS011;41031;44.750;11.308;2023-07-28T10:57:53;4.00;;;1.77;;
55134;SDS011;41031;44.750;11.308;2023-07-28T11:00:21;6.77;;;1.70;;
55134;SDS011;41031;44.750;11.308;2023-07-28T11:02:52;8.23;;;2.10;;
55134;SDS011;41031;44.750;11.308;2023-07-28T11:05:28;7.37;;;2.00;;
55134;SDS011;41031;44.750;11.308;2023-07-28T11:08:00;1.83;;;1.50;;
55134;SDS011;41031;44.750;11.308;2023-07-28T11:10:28;4.37;;;1.63;;
55134;SDS011;41031;44.750;11.308;2023-07-28T11:12:57;4.27;;;2.03;;
55134;SDS011;41031;44.750;11.308;2023-07-28T11:15:41;2.83;;;1.73;;
55134;SDS011;41031;44.750;11.308;2023-07-28T11:18:08;5.27;;;1.63;;
55134;SDS011;41031;44.750;11.308;2023-07-28T11:20:36;3.60;;;1.50;;
55134;SDS011;41031;44.750;11.308;2023-07-28T11:23:04;4.17;;;2.00;;
55134;SDS011;41031;44.750;11.308;2023-07-28T11:25:32;4.20;;;1.80;;
55134;SDS011;41031;44.750;11.308;2023-07-28T11:28:00;6.27;;;1.70;;
55134;SDS011;41031;44.750;11.308;2023-07-28T11:30:35;4.30;;;1.50;;
55134;SDS011;41031;44.750;11.308;2023-07-28T11:33:10;5.30;;;1.80;;
55134;SDS011;41031;44.750;11.308;2023-07-28T11:35:38;9.00;;;1.80;;
55134;SDS011;41031;44.750;11.308;2023-07-28T11:38:07;5.60;;;2.07;;
55134;SDS011;41031;44.750;11.308;2023-07-28T11:40:35;3.03;;;1.80;;
55134;SDS011;41031;44.750;11.308;2023-07-28T11:43:03;7.47;;;1.93;;
55134;SDS011;41031;44.750;11.308;2023-07-28T11:45:31;3.60;;;1.90;;
55134;SDS011;41031;44.750;11.308;2023-07-28T11:47:59;2.37;;;1.70;;
55134;SDS011;41031;44.750;11.308;2023-07-28T11:50:27;6.57;;;1.77;;
55134;SDS011;41031;44.750;11.308;2023-07-28T11:52:57;5.17;;;1.77;;
55134;SDS011;41031;44.750;11.308;2023-07-28T11:55:24;4.73;;;1.70;;
55134;SDS011;41031;44.750;11.308;2023-07-28T11:57:52;2.40;;;1.90;;
55134;SDS011;41031;44.750;11.308;2023-07-28T12:00:29;6.83;;;2.03;;
55134;SDS011;41031;44.750;11.308;2023-07-28T12:03:10;3.93;;;1.90;;
55134;SDS011;41031;44.750;11.308;2023-07-28T12:05:40;3.27;;;2.00;;
55134;SDS011;41031;44.750;11.308;2023-07-28T12:08:39;5.70;;;1.63;;
55134;SDS011;41031;44.750;11.308;2023-07-28T12:11:14;4.70;;;2.30;;
55134;SDS011;41031;44.750;11.308;2023-07-28T12:13:49;7.53;;;1.83;;
55134;SDS011;41031;44.750;11.308;2023-07-28T12:16:37;5.77;;;2.30;;
55134;SDS011;41031;44.750;11.308;2023-07-28T12:19:12;5.53;;;2.00;;
55134;SDS011;41031;44.750;11.308;2023-07-28T12:21:39;4.07;;;2.17;;
55134;SDS011;41031;44.750;11.308;2023-07-28T12:24:06;2.33;;;1.67;;
55134;SDS011;41031;44.750;11.308;2023-07-28T12:26:34;2.87;;;2.10;;
55134;SDS011;41031;44.750;11.308;2023-07-28T12:29:05;3.83;;;1.77;;
55134;SDS011;41031;44.750;11.308;2023-07-28T12:31:35;4.00;;;1.83;;
55134;SDS011;41031;44.750;11.308;2023-07-28T12:34:05;10.30;;;2.20;;
55134;SDS011;41031;44.750;11.308;2023-07-28T12:36:32;2.00;;;1.80;;
55134;SDS011;41031;44.750;11.308;2023-07-28T12:39:03;2.80;;;1.73;;
55134;SDS011;41031;44.750;11.308;2023-07-28T12:41:50;2.10;;;1.90;;
55134;SDS011;41031;44.750;11.308;2023-07-28T12:44:20;3.27;;;1.97;;
55134;SDS011;41031;44.750;11.308;2023-07-28T12:47:07;6.33;;;2.00;;
55134;SDS011;41031;44.750;11.308;2023-07-28T12:49:34;2.67;;;1.87;;
55134;SDS011;41031;44.750;11.308;2023-07-28T12:52:03;3.20;;;1.90;;
55134;SDS011;41031;44.750;11.308;2023-07-28T12:54:33;2.70;;;1.87;;
55134;SDS011;41031;44.750;11.308;2023-07-28T12:57:09;2.30;;;1.97;;
55134;SDS011;41031;44.750;11.308;2023-07-28T12:59:39;2.00;;;1.80;;
55134;SDS011;41031;44.750;11.308;2023-07-28T13:02:09;4.80;;;2.17;;
55134;SDS011;41031;44.750;11.308;2023-07-28T13:04:36;4.47;;;2.00;;
55134;SDS011;41031;44.750;11.308;2023-07-28T13:07:03;2.23;;;1.90;;
55134;SDS011;41031;44.750;11.308;2023-07-28T13:09:33;2.17;;;1.97;;
55134;SDS011;41031;44.750;11.308;2023-07-28T13:12:02;3.53;;;1.90;;
55134;SDS011;41031;44.750;11.308;2023-07-28T13:14:32;3.07;;;2.27;;
55134;SDS011;41031;44.750;11.308;2023-07-28T13:16:59;4.57;;;2.17;;
55134;SDS011;41031;44.750;11.308;2023-07-28T13:19:26;6.33;;;2.40;;
55134;SDS011;41031;44.750;11.308;2023-07-28T13:21:53;3.30;;;1.80;;
55134;SDS011;41031;44.750;11.308;2023-07-28T13:24:20;6.50;;;2.50;;
55134;SDS011;41031;44.750;11.308;2023-07-28T13:26:47;4.10;;;2.40;;
55134;SDS011;41031;44.750;11.308;2023-07-28T13:29:14;3.23;;;2.30;;
55134;SDS011;41031;44.750;11.308;2023-07-28T13:31:41;2.07;;;1.80;;
55134;SDS011;41031;44.750;11.308;2023-07-28T13:34:09;7.20;;;2.83;;
55134;SDS011;41031;44.750;11.308;2023-07-28T13:36:36;5.47;;;2.10;;
55134;SDS011;41031;44.750;11.308;2023-07-28T13:39:03;2.63;;;2.30;;
55134;SDS011;41031;44.750;11.308;2023-07-28T13:41:31;3.27;;;2.07;;
55134;SDS011;41031;44.750;11.308;2023-07-28T13:43:58;3.70;;;2.10;;
55134;SDS011;41031;44.750;11.308;2023-07-28T13:46:28;3.13;;;2.20;;
55134;SDS011;41031;44.750;11.308;2023-07-28T13:48:55;3.13;;;2.23;;
55134;SDS011;41031;44.750;11.308;2023-07-28T13:51:32;5.33;;;2.00;;
55134;SDS011;41031;44.750;11.308;2023-07-28T13:54:19;5.70;;;2.60;;
55134;SDS011;41031;44.750;11.308;2023-07-28T13:56:49;2.90;;;1.90;;
55134;SDS011;41031;44.750;11.308;2023-07-28T13:59:20;6.50;;;2.30;;
55134;SDS011;41031;44.750;11.308;2023-07-28T14:01:48;4.13;;;2.23;;
55134;SDS011;41031;44.750;11.308;2023-07-28T14:04:15;4.83;;;2.20;;
55134;SDS011;41031;44.750;11.308;2023-07-28T14:06:42;3.43;;;2.20;;
55134;SDS011;41031;44.750;11.308;2023-07-28T14:09:09;2.77;;;2.03;;
55134;SDS011;41031;44.750;11.308;2023-07-28T14:11:36;3.43;;;2.27;;
55134;SDS011;41031;44.750;11.308;2023-07-28T14:14:03;4.47;;;2.30;;
55134;SDS011;41031;44.750;11.308;2023-07-28T14:16:31;4.97;;;2.70;;
55134;SDS011;41031;44.750;11.308;2023-07-28T14:18:58;3.03;;;2.33;;
55134;SDS011;41031;44.750;11.308;2023-07-28T14:21:25;5.43;;;2.50;;
55134;SDS011;41031;44.750;11.308;2023-07-28T14:23:52;6.40;;;2.40;;
55134;SDS011;41031;44.750;11.308;2023-07-28T14:26:19;6.13;;;2.37;;
55134;SDS011;41031;44.750;11.308;2023-07-28T14:28:46;3.63;;;2.20;;
55134;SDS011;41031;44.750;11.308;2023-07-28T14:31:13;3.07;;;2.33;;
55134;SDS011;41031;44.750;11.308;2023-07-28T14:33:40;3.37;;;2.57;;
55134;SDS011;41031;44.750;11.308;2023-07-28T14:36:07;4.37;;;2.73;;
55134;SDS011;41031;44.750;11.308;2023-07-28T14:38:34;6.83;;;2.50;;
55134;SDS011;41031;44.750;11.308;2023-07-28T14:41:01;5.77;;;2.40;;
55134;SDS011;41031;44.750;11.308;2023-07-28T14:43:28;2.23;;;2.03;;
55134;SDS011;41031;44.750;11.308;2023-07-28T14:45:56;4.10;;;2.00;;
55134;SDS011;41031;44.750;11.308;2023-07-28T14:48:23;2.50;;;2.00;;
55134;SDS011;41031;44.750;11.308;2023-07-28T14:50:50;4.87;;;2.20;;
55134;SDS011;41031;44.750;11.308;2023-07-28T14:53:30;4.83;;;2.37;;
55134;SDS011;41031;44.750;11.308;2023-07-28T14:56:02;7.47;;;2.40;;
55134;SDS011;41031;44.750;11.308;2023-07-28T14:58:31;4.43;;;1.93;;
55134;SDS011;41031;44.750;11.308;2023-07-28T15:00:58;4.33;;;2.23;;